Nearby METAR Reports

Meteorological Terminal Air Report (METAR)

K3I2 - Pt Pleasant, West Virginia, USA
Distance from station: S 11mi, 18km
Updated: Tue, 10-Dec-2019 12:15pm EST
NOT Current
Overcast
Overcast
 Wind from WSW
Wind: WSW 3 mph , 6 km/h
Temperature: 39°F , 4°C
Dew Point: 34°F , 1°C
Humidity: 81%
Barometer: 30.09 inHg , 1019 hPa
Clouds: Overcast
Visibility: 10 miles , 16 km
Cloud details: Mostly cloudy 1900 ft
Mostly cloudy 2500 ft
Overcast 3000 ft
2019/12/10 17:15 K3I2 101715Z AUTO 24003KT 10SM BKN019 BKN025 OVC030 04/01 A3009 RMK AO2 T00380010 PNO
KUNI - Athens, Ohio, USA
Distance from station: NW 13mi, 21km
Updated: Sun, 15-Dec-2019 3:35pm EST
Clear
Clear
 Wind from calm
Wind: Calm
Temperature: 37°F , 3°C
Dew Point: 25°F , -4°C
Humidity: 60%
Barometer: 30.14 inHg , 1020.7 hPa
Clouds: Clear
Visibility: 10 miles , 16 km
2019/12/15 20:35 KUNI 152035Z AUTO 00000KT 10SM CLR 03/M04 A3014 RMK AO2 T00261040
 
KPKB - Parkersburg, West Virginia, USA
Distance from station: ENE 40mi, 65km
Updated: Sun, 15-Dec-2019 3:53pm EST
Few Clouds
Few Clouds
 Wind from varies
Wind: varies 3 mph , 6 km/h
Temperature: 36°F , 2°C
Dew Point: 23°F , -5°C
Humidity: 60%
Barometer: 30.19 inHg , 1022.4 hPa
Clouds: Few Clouds
Visibility: 10 miles , 16 km
Cloud details: Few Clouds 3300 ft
2019/12/15 20:53 KPKB 152053Z VRB03KT 10SM FEW033 02/M05 A3019 RMK AO2 SLP229 T00221050 53012
KCRW - Charleston, West Virginia, USA
Distance from station: SSE 55mi, 88km
Updated: Sun, 15-Dec-2019 3:54pm EST
Partly cloudy
Partly cloudy
 Wind from NNW
Wind: NNW 6 mph , 9 km/h
Temperature: 43°F , 6°C
Wind Chill: 39°F , 4°C
Dew Point: 28°F , -2°C
Humidity: 57%
Barometer: 30.12 inHg , 1020 hPa
Clouds: Partly cloudy
Visibility: 10 miles , 16 km
Cloud details: Few Clouds 3200 ft
Partly cloudy 7500 ft
Partly cloudy 12000 ft
2019/12/15 20:54 KCRW 152054Z 33005KT 10SM FEW032 SCT075 SCT120 06/M02 A3012 RMK AO2 SLP204 T00561017 53008
 
KHTS - Huntington, West Virginia, USA
Distance from station: SSW 55mi, 89km
Updated: Sun, 15-Dec-2019 3:51pm EST
Mostly cloudy
Mostly cloudy
 Wind from WNW
Wind: WNW 6 mph , 9 km/h
Temperature: 39°F , 4°C
Wind Chill: 35°F , 2°C
Dew Point: 28°F , -2°C
Humidity: 65%
Barometer: 30.13 inHg , 1020.3 hPa
Clouds: Mostly cloudy
Visibility: 10 miles , 16 km
Cloud details: Mostly cloudy 10000 ft
2019/12/15 20:51 KHTS 152051Z 29005KT 10SM BKN100 04/M02 A3013 RMK AO2 SLP208 T00441022 53001
KLHQ - Lancaster, Ohio, USA
Distance from station: NW 56mi, 91km
Updated: Sun, 15-Dec-2019 3:53pm EST
Clear
Clear
 Wind from WSW
Wind: WSW 7 mph , 11 km/h
Temperature: 34°F , 1°C
Wind Chill: 28°F , -2°C
Dew Point: 21°F , -6°C
Humidity: 60%
Barometer: 30.14 inHg , 1020.7 hPa
Clouds: Clear
Visibility: 10 miles , 16 km
2019/12/15 20:53 KLHQ 152053Z AUTO 25006KT 10SM CLR 01/M06 A3014 RMK AO2 SLP214 T00061056 53004
 
KZZV - Zanesville, Ohio, USA
Distance from station: N 61mi, 99km
Updated: Sun, 15-Dec-2019 3:53pm EST
Clear
Clear
 Wind from WSW
Wind: WSW 6 mph , 9 km/h
Temperature: 34°F , 1°C
Wind Chill: 29°F , -2°C
Dew Point: 21°F , -6°C
Humidity: 60%
Barometer: 30.15 inHg , 1021 hPa
Clouds: Clear
Visibility: 10 miles , 16 km
2019/12/15 20:53 KZZV 152053Z AUTO 25005KT 10SM CLR 01/M06 A3015 RMK AO2 SLP216 T00061061 53014
KLCK - Rickenbacker Ang, Ohio, USA
Distance from station: NW 68mi, 110km
Updated: Sun, 15-Dec-2019 2:55pm EST
Partly cloudy
Partly cloudy
 Wind from WSW
Wind: WSW 8 mph , 13 km/h
Temperature: 34°F , 1°C
Wind Chill: 27°F , -3°C
Dew Point: 21°F , -6°C
Humidity: 60%
Barometer: 30.13 inHg , 1020.3 hPa
Clouds: Partly cloudy
Visibility: 10 miles , 16 km
Cloud details: Partly cloudy 3200 ft
2019/12/15 19:55 KLCK 151955Z AUTO 25007KT 10SM SCT032 01/M06 A3013 RMK AO2 T00121061
 
KVTA - Newark, Ohio, USA
Distance from station: NNW 68mi, 110km
Updated: Sun, 15-Dec-2019 3:54pm EST
Clear
Clear
 Wind from SW
Wind: SW 6 mph , 9 km/h
Temperature: 34°F , 1°C
Wind Chill: 29°F , -2°C
Dew Point: 21°F , -6°C
Humidity: 60%
Barometer: 30.13 inHg , 1020.3 hPa
Clouds: Clear
Visibility: 10 miles , 16 km
2019/12/15 20:54 KVTA 152054Z AUTO 23005KT 10SM CLR 01/M06 A3013 RMK AO2 SLP213 T00111056 53009